Time;durP1;ratioP1;P1;durP2;ratioP2;P2;SDS_P1;SDS_P2;PMS_P1;PMS_P2;Temp;Humidity;BMP_temperature;BMP_pressure;BME280_temperature;BME280_humidity;BME280_pressure;Samples;Min_cycle;Max_cycle;Signal;HPM_P1;HPM_P2
2023/07/02 00:02:06;;;;;;;10.98;5.72;;;;;;;;;;5024390;28;20026;-83
2023/07/02 00:04:31;;;;;;;9.75;5.22;;;;;;;;;;5019571;28;20033;-83
2023/07/02 00:06:56;;;;;;;11.45;5.15;;;;;;;;;;5024599;28;20058;-84
2023/07/02 00:09:22;;;;;;;12.27;5.38;;;;;;;;;;5001863;28;20018;-84
2023/07/02 00:11:47;;;;;;;13.23;5.32;;;;;;;;;;5021091;28;20117;-84
2023/07/02 00:14:13;;;;;;;11.63;5.20;;;;;;;;;;5011996;28;20116;-79
2023/07/02 00:16:47;;;;;;;15.63;5.35;;;;;;;;;;5014847;28;20056;-80
2023/07/02 00:19:16;;;;;;;10.48;5.28;;;;;;;;;;5012254;28;20490;-83
2023/07/02 00:21:42;;;;;;;11.93;5.50;;;;;;;;;;5015421;28;20130;-81
2023/07/02 00:24:09;;;;;;;12.07;6.00;;;;;;;;;;5013136;28;20128;-83
2023/07/02 00:26:35;;;;;;;11.02;5.72;;;;;;;;;;5032265;28;20022;-84
2023/07/02 00:29:01;;;;;;;9.68;5.05;;;;;;;;;;5011378;28;20048;-84
2023/07/02 00:31:26;;;;;;;11.23;5.38;;;;;;;;;;5014401;28;20040;-83
2023/07/02 00:33:51;;;;;;;12.68;5.85;;;;;;;;;;5011508;28;20557;-83
2023/07/02 00:36:17;;;;;;;13.20;6.22;;;;;;;;;;5014006;28;20022;-83
2023/07/02 00:38:45;;;;;;;13.23;6.00;;;;;;;;;;5010884;28;20037;-82
2023/07/02 00:41:11;;;;;;;14.90;6.53;;;;;;;;;;5024310;28;20029;-84
2023/07/02 00:43:43;;;;;;;14.50;6.25;;;;;;;;;;5033106;28;20034;-84
2023/07/02 00:46:12;;;;;;;18.60;6.47;;;;;;;;;;5003700;28;20489;-83
2023/07/02 00:48:39;;;;;;;14.45;6.55;;;;;;;;;;5011177;28;20053;-84
2023/07/02 00:51:05;;;;;;;15.50;7.07;;;;;;;;;;5015437;28;20037;-83
2023/07/02 00:53:32;;;;;;;14.55;7.20;;;;;;;;;;5028743;28;20025;-84
2023/07/02 00:55:57;;;;;;;16.70;7.45;;;;;;;;;;5012252;28;20048;-84
2023/07/02 00:58:23;;;;;;;15.10;7.20;;;;;;;;;;5028503;28;20036;-83
2023/07/02 01:00:48;;;;;;;18.67;7.35;;;;;;;;;;5011215;28;20029;-84
2023/07/02 01:03:14;;;;;;;17.05;7.05;;;;;;;;;;5026045;28;20026;-84
2023/07/02 01:05:41;;;;;;;13.68;6.97;;;;;;;;;;5012136;28;20736;-82
2023/07/02 01:08:07;;;;;;;10.68;5.07;;;;;;;;;;5005334;28;20026;-81
2023/07/02 01:10:35;;;;;;;13.38;5.70;;;;;;;;;;5031373;28;20424;-80
2023/07/02 01:13:04;;;;;;;10.55;4.88;;;;;;;;;;5011063;28;20120;-83
2023/07/02 01:15:31;;;;;;;9.90;4.30;;;;;;;;;;5012786;28;20033;-84
2023/07/02 01:17:56;;;;;;;10.50;4.88;;;;;;;;;;5031507;28;20536;-83
2023/07/02 01:20:23;;;;;;;12.48;4.60;;;;;;;;;;5033256;28;20025;-84
2023/07/02 01:22:51;;;;;;;12.88;5.70;;;;;;;;;;5031957;28;20036;-85
2023/07/02 01:25:17;;;;;;;10.00;4.40;;;;;;;;;;5012740;28;20025;-82
2023/07/02 01:27:43;;;;;;;9.10;4.18;;;;;;;;;;5030164;28;20072;-84
2023/07/02 01:30:09;;;;;;;9.45;4.20;;;;;;;;;;5036415;28;20032;-84
2023/07/02 01:32:35;;;;;;;10.63;3.60;;;;;;;;;;5014694;28;20044;-84
2023/07/02 01:35:00;;;;;;;8.65;3.88;;;;;;;;;;5015269;28;20112;-83
2023/07/02 01:37:26;;;;;;;8.82;3.85;;;;;;;;;;5031109;28;20168;-85
2023/07/02 01:39:51;;;;;;;7.75;4.15;;;;;;;;;;5013635;28;20056;-83
2023/07/02 01:42:19;;;;;;;8.57;4.07;;;;;;;;;;5032981;28;20069;-84
2023/07/02 01:44:46;;;;;;;7.03;3.55;;;;;;;;;;5020026;28;20470;-83
2023/07/02 01:47:12;;;;;;;7.15;3.80;;;;;;;;;;5011094;28;20064;-84
2023/07/02 01:49:37;;;;;;;7.40;4.28;;;;;;;;;;5031982;28;20486;-81
2023/07/02 01:52:04;;;;;;;9.32;4.03;;;;;;;;;;5013724;28;20111;-83
2023/07/02 01:54:31;;;;;;;8.55;4.05;;;;;;;;;;5028144;28;20036;-84
2023/07/02 01:56:57;;;;;;;7.05;3.55;;;;;;;;;;5024266;28;20065;-84
2023/07/02 01:59:23;;;;;;;8.73;3.97;;;;;;;;;;5026578;28;20076;-84
2023/07/02 02:01:49;;;;;;;9.30;4.90;;;;;;;;;;5017278;28;20029;-83
2023/07/02 02:04:14;;;;;;;8.43;4.47;;;;;;;;;;5014671;28;20152;-84
2023/07/02 02:06:40;;;;;;;9.88;4.15;;;;;;;;;;5012922;28;20017;-83
2023/07/02 02:09:07;;;;;;;11.25;4.45;;;;;;;;;;5015668;28;20075;-84
2023/07/02 02:11:34;;;;;;;11.70;4.43;;;;;;;;;;5033100;28;20082;-80
2023/07/02 02:14:02;;;;;;;8.00;4.43;;;;;;;;;;5026672;28;20059;-84
2023/07/02 02:16:28;;;;;;;10.68;4.60;;;;;;;;;;5026905;28;20495;-84
2023/07/02 02:18:54;;;;;;;9.23;4.45;;;;;;;;;;5005085;28;20245;-83
2023/07/02 02:21:20;;;;;;;8.52;4.57;;;;;;;;;;5013312;28;20139;-79
2023/07/02 02:23:46;;;;;;;9.35;4.78;;;;;;;;;;5030311;28;20017;-83
2023/07/02 02:26:11;;;;;;;10.27;4.93;;;;;;;;;;5026930;28;20029;-84
2023/07/02 02:28:37;;;;;;;10.82;4.45;;;;;;;;;;5011770;28;20435;-84
2023/07/02 02:31:03;;;;;;;10.07;4.60;;;;;;;;;;5027535;28;20061;-83
2023/07/02 02:33:29;;;;;;;13.65;4.90;;;;;;;;;;5007893;28;20026;-83
2023/07/02 02:35:54;;;;;;;10.93;4.38;;;;;;;;;;5012376;28;20049;-83
2023/07/02 02:38:19;;;;;;;11.30;4.13;;;;;;;;;;5027914;28;20108;-84
2023/07/02 02:40:45;;;;;;;11.52;4.32;;;;;;;;;;5009859;28;20032;-82
2023/07/02 02:43:10;;;;;;;9.60;4.15;;;;;;;;;;5033434;28;20073;-83
2023/07/02 02:45:36;;;;;;;10.38;4.55;;;;;;;;;;5030884;28;20083;-83
2023/07/02 02:48:01;;;;;;;12.15;4.93;;;;;;;;;;5033042;28;20028;-84
2023/07/02 02:50:26;;;;;;;9.95;4.63;;;;;;;;;;5015545;28;20028;-83
2023/07/02 02:52:52;;;;;;;10.60;4.55;;;;;;;;;;5010073;28;20036;-83
2023/07/02 02:55:18;;;;;;;8.65;4.55;;;;;;;;;;5024117;28;20040;-83
2023/07/02 02:57:44;;;;;;;8.65;4.13;;;;;;;;;;5014031;28;20033;-84
2023/07/02 03:00:11;;;;;;;9.15;3.95;;;;;;;;;;5012937;28;20022;-83
2023/07/02 03:02:36;;;;;;;10.10;4.47;;;;;;;;;;5014928;28;20025;-83
2023/07/02 03:05:02;;;;;;;13.23;4.78;;;;;;;;;;5013344;28;20037;-84
2023/07/02 03:07:28;;;;;;;10.52;4.70;;;;;;;;;;5012515;28;20032;-84
2023/07/02 03:09:53;;;;;;;9.85;4.57;;;;;;;;;;5014397;28;20123;-83
2023/07/02 03:12:19;;;;;;;12.43;4.68;;;;;;;;;;5012684;28;20115;-84
2023/07/02 03:14:44;;;;;;;12.77;4.88;;;;;;;;;;5031379;28;20029;-83
2023/07/02 03:17:10;;;;;;;13.30;4.88;;;;;;;;;;5012150;28;20029;-83
2023/07/02 03:19:35;;;;;;;10.45;4.60;;;;;;;;;;5031130;28;20036;-83
2023/07/02 03:22:01;;;;;;;8.50;4.80;;;;;;;;;;5028069;28;20040;-84
2023/07/02 03:24:26;;;;;;;11.50;5.25;;;;;;;;;;5013874;28;20021;-83
2023/07/02 03:26:51;;;;;;;11.38;5.07;;;;;;;;;;5027404;28;20383;-84
2023/07/02 03:29:19;;;;;;;10.70;5.20;;;;;;;;;;5013631;28;20032;-83
2023/07/02 03:31:45;;;;;;;9.07;4.80;;;;;;;;;;5031332;28;20116;-81
2023/07/02 03:34:10;;;;;;;10.73;5.13;;;;;;;;;;5030305;28;20116;-84
2023/07/02 03:36:37;;;;;;;15.45;5.32;;;;;;;;;;5032569;28;20033;-82
2023/07/02 03:39:03;;;;;;;10.48;4.80;;;;;;;;;;5014448;28;20025;-84
2023/07/02 03:41:29;;;;;;;10.95;5.07;;;;;;;;;;5011936;28;20481;-84
2023/07/02 03:43:54;;;;;;;14.90;5.45;;;;;;;;;;5030061;28;20079;-83
2023/07/02 03:46:20;;;;;;;11.90;5.28;;;;;;;;;;5014702;28;20394;-82
2023/07/02 03:48:45;;;;;;;10.07;5.05;;;;;;;;;;5029763;28;20029;-83
2023/07/02 03:51:14;;;;;;;11.18;4.95;;;;;;;;;;5032088;28;20017;-84
2023/07/02 03:53:39;;;;;;;11.38;4.65;;;;;;;;;;5008070;28;20048;-83
2023/07/02 03:56:05;;;;;;;9.38;4.78;;;;;;;;;;5027529;28;20477;-83
2023/07/02 03:58:30;;;;;;;12.02;5.28;;;;;;;;;;5012040;28;20026;-83
2023/07/02 04:00:55;;;;;;;12.90;4.78;;;;;;;;;;5028987;28;20494;-84
2023/07/02 04:03:21;;;;;;;11.18;4.68;;;;;;;;;;5025342;28;20028;-84
2023/07/02 04:05:46;;;;;;;9.50;4.55;;;;;;;;;;5007585;28;20025;-83
2023/07/02 04:08:12;;;;;;;11.95;4.85;;;;;;;;;;5013754;28;20299;-83
2023/07/02 04:10:37;;;;;;;11.52;4.53;;;;;;;;;;5012848;28;20022;-84
2023/07/02 04:13:03;;;;;;;12.45;5.15;;;;;;;;;;5013121;28;20040;-83
2023/07/02 04:15:28;;;;;;;10.07;4.72;;;;;;;;;;5012830;28;20039;-83
2023/07/02 04:17:53;;;;;;;10.77;4.82;;;;;;;;;;5008994;28;20025;-79
2023/07/02 04:20:20;;;;;;;13.13;5.50;;;;;;;;;;5014169;28;20029;-83
2023/07/02 04:22:46;;;;;;;11.75;5.13;;;;;;;;;;5025658;28;20089;-83
2023/07/02 04:25:14;;;;;;;13.10;5.28;;;;;;;;;;5007485;28;20021;-84
2023/07/02 04:27:41;;;;;;;11.32;5.80;;;;;;;;;;5007989;28;20021;-83
2023/07/02 04:30:08;;;;;;;10.07;5.47;;;;;;;;;;5027895;28;20076;-82
2023/07/02 04:32:34;;;;;;;10.00;4.82;;;;;;;;;;5010138;28;20033;-82
2023/07/02 04:34:59;;;;;;;12.15;5.72;;;;;;;;;;5030866;28;20080;-81
2023/07/02 04:37:25;;;;;;;12.35;5.03;;;;;;;;;;5020406;28;20025;-82
2023/07/02 04:39:50;;;;;;;12.98;5.40;;;;;;;;;;5025561;28;20040;-83
2023/07/02 04:42:15;;;;;;;12.55;5.15;;;;;;;;;;5017879;28;20036;-82
2023/07/02 04:44:43;;;;;;;17.42;6.20;;;;;;;;;;5010092;28;20079;-83
2023/07/02 04:47:08;;;;;;;16.50;5.82;;;;;;;;;;5006552;28;20465;-83
2023/07/02 04:49:34;;;;;;;11.60;5.40;;;;;;;;;;5009999;28;20029;-83
2023/07/02 04:51:59;;;;;;;13.93;5.20;;;;;;;;;;5006823;28;20029;-84
2023/07/02 04:54:24;;;;;;;12.38;5.20;;;;;;;;;;5030398;28;20045;-82
2023/07/02 04:56:50;;;;;;;13.02;4.82;;;;;;;;;;5012020;28;20033;-83
2023/07/02 04:59:16;;;;;;;13.05;5.18;;;;;;;;;;5021908;28;20064;-83
2023/07/02 05:01:41;;;;;;;12.63;5.00;;;;;;;;;;5029096;28;20037;-84
2023/07/02 05:04:11;;;;;;;16.65;5.38;;;;;;;;;;5021889;28;20034;-78
2023/07/02 05:06:37;;;;;;;13.55;5.18;;;;;;;;;;5030464;28;20057;-83
2023/07/02 05:09:02;;;;;;;12.75;4.90;;;;;;;;;;5002665;28;20087;-83
2023/07/02 05:11:28;;;;;;;13.50;5.47;;;;;;;;;;5008100;28;20033;-79
2023/07/02 05:13:53;;;;;;;12.43;4.88;;;;;;;;;;5016419;28;20030;-83
2023/07/02 05:16:18;;;;;;;16.73;5.18;;;;;;;;;;5011201;28;20060;-83
2023/07/02 05:18:44;;;;;;;15.43;5.72;;;;;;;;;;5012428;28;20116;-80
2023/07/02 05:21:09;;;;;;;10.57;5.15;;;;;;;;;;5020423;28;20462;-79
2023/07/02 05:23:35;;;;;;;14.65;5.10;;;;;;;;;;5031329;28;20076;-83
2023/07/02 05:26:01;;;;;;;13.85;5.88;;;;;;;;;;5007987;28;20030;-84
2023/07/02 05:28:26;;;;;;;12.27;5.22;;;;;;;;;;5013703;28;20021;-83
2023/07/02 05:30:51;;;;;;;14.10;5.60;;;;;;;;;;5024159;28;20041;-83
2023/07/02 05:33:17;;;;;;;12.85;5.63;;;;;;;;;;5008891;28;20032;-84
2023/07/02 05:35:42;;;;;;;17.35;5.55;;;;;;;;;;5028621;28;20120;-84
2023/07/02 05:38:08;;;;;;;12.20;4.85;;;;;;;;;;5022015;28;20549;-83
2023/07/02 05:40:33;;;;;;;15.43;5.60;;;;;;;;;;5025379;28;20032;-79
2023/07/02 05:42:58;;;;;;;14.55;4.80;;;;;;;;;;5024951;28;20026;-82
2023/07/02 05:45:24;;;;;;;13.48;5.55;;;;;;;;;;5016471;28;20156;-83
2023/07/02 05:47:49;;;;;;;14.07;6.10;;;;;;;;;;5010587;28;20033;-81
2023/07/02 05:50:15;;;;;;;16.30;5.97;;;;;;;;;;5029041;28;20120;-83
2023/07/02 05:52:40;;;;;;;11.23;5.30;;;;;;;;;;5025469;28;20034;-84
2023/07/02 05:55:10;;;;;;;9.98;4.70;;;;;;;;;;5026752;28;20022;-83
2023/07/02 05:57:36;;;;;;;13.73;5.53;;;;;;;;;;5007904;28;20033;-83
2023/07/02 06:00:04;;;;;;;14.38;5.28;;;;;;;;;;5010217;28;20032;-83
2023/07/02 06:02:29;;;;;;;12.80;4.63;;;;;;;;;;5007932;28;20033;-84
2023/07/02 06:04:54;;;;;;;16.20;5.63;;;;;;;;;;5028378;28;20033;-81
2023/07/02 06:07:20;;;;;;;12.52;5.30;;;;;;;;;;5026795;28;20033;-84
2023/07/02 06:09:45;;;;;;;14.18;4.85;;;;;;;;;;4997821;28;20091;-82
2023/07/02 06:12:11;;;;;;;10.05;4.47;;;;;;;;;;5020524;28;20092;-83
2023/07/02 06:14:36;;;;;;;12.70;5.18;;;;;;;;;;5011656;28;20021;-83
2023/07/02 06:17:05;;;;;;;11.48;4.90;;;;;;;;;;5008577;28;20026;-83
2023/07/02 06:19:30;;;;;;;15.50;4.97;;;;;;;;;;5029849;28;20116;-83
2023/07/02 06:21:56;;;;;;;13.65;5.45;;;;;;;;;;5010417;28;20453;-83
2023/07/02 06:24:21;;;;;;;11.30;4.70;;;;;;;;;;5027988;28;20112;-78
2023/07/02 06:26:46;;;;;;;13.95;4.90;;;;;;;;;;5014087;28;20390;-83
2023/07/02 06:29:12;;;;;;;15.57;4.28;;;;;;;;;;5023205;28;20040;-84
2023/07/02 06:31:37;;;;;;;10.75;4.97;;;;;;;;;;5027049;28;20025;-83
2023/07/02 06:34:03;;;;;;;10.30;3.80;;;;;;;;;;5016817;28;20359;-83
2023/07/02 06:36:28;;;;;;;12.80;4.25;;;;;;;;;;5026604;28;20482;-83
2023/07/02 06:38:53;;;;;;;12.88;4.47;;;;;;;;;;5024281;28;20033;-83
2023/07/02 06:41:19;;;;;;;12.55;4.38;;;;;;;;;;5011669;28;20393;-83
2023/07/02 06:43:44;;;;;;;12.50;4.38;;;;;;;;;;5031595;28;20026;-84
2023/07/02 06:46:11;;;;;;;14.52;4.43;;;;;;;;;;5029129;28;20053;-83
2023/07/02 06:48:36;;;;;;;11.85;4.00;;;;;;;;;;5011966;28;20617;-84
2023/07/02 06:51:02;;;;;;;10.95;3.83;;;;;;;;;;5027408;28;20029;-79
2023/07/02 06:53:27;;;;;;;11.18;4.05;;;;;;;;;;5030084;28;20029;-83
2023/07/02 06:55:53;;;;;;;10.75;3.83;;;;;;;;;;5011926;28;20150;-83
2023/07/02 06:58:18;;;;;;;8.57;3.33;;;;;;;;;;5012407;28;20059;-84
2023/07/02 07:00:43;;;;;;;9.38;3.72;;;;;;;;;;5009469;28;20033;-83
2023/07/02 07:03:09;;;;;;;11.20;3.40;;;;;;;;;;5021875;28;20096;-84
2023/07/02 07:05:34;;;;;;;9.07;3.65;;;;;;;;;;5021745;28;20029;-83
2023/07/02 07:08:00;;;;;;;9.35;3.30;;;;;;;;;;5012223;28;20025;-84
2023/07/02 07:10:26;;;;;;;12.88;4.55;;;;;;;;;;5020667;28;20037;-84
2023/07/02 07:12:52;;;;;;;9.10;3.75;;;;;;;;;;5029986;28;20037;-78
2023/07/02 07:15:17;;;;;;;17.45;4.45;;;;;;;;;;5025401;28;20034;-84
2023/07/02 07:17:43;;;;;;;9.90;3.75;;;;;;;;;;5014456;28;20578;-84
2023/07/02 07:20:08;;;;;;;9.90;3.70;;;;;;;;;;5030404;28;20040;-83
2023/07/02 07:22:34;;;;;;;11.88;3.95;;;;;;;;;;5030459;28;20033;-84
2023/07/02 07:25:00;;;;;;;13.00;4.13;;;;;;;;;;5025998;28;20526;-83
2023/07/02 07:27:25;;;;;;;12.70;3.92;;;;;;;;;;5012024;28;20033;-84
2023/07/02 07:29:50;;;;;;;9.77;3.47;;;;;;;;;;5017057;28;20671;-82
2023/07/02 07:32:16;;;;;;;10.73;3.67;;;;;;;;;;5024957;28;20116;-84
2023/07/02 07:34:42;;;;;;;10.75;4.00;;;;;;;;;;5027377;28;20461;-83
2023/07/02 07:37:08;;;;;;;8.00;3.90;;;;;;;;;;5009233;28;20037;-84
2023/07/02 07:39:33;;;;;;;11.15;4.10;;;;;;;;;;5024257;28;20110;-83
2023/07/02 07:41:58;;;;;;;11.82;3.88;;;;;;;;;;5021157;28;20580;-84
2023/07/02 07:44:28;;;;;;;11.35;4.10;;;;;;;;;;5027458;28;20544;-84
2023/07/02 07:46:55;;;;;;;10.48;4.15;;;;;;;;;;5018328;28;20024;-83
2023/07/02 07:49:21;;;;;;;13.45;4.47;;;;;;;;;;5028290;28;20028;-83
2023/07/02 07:51:46;;;;;;;9.32;4.32;;;;;;;;;;5022187;28;20114;-83
2023/07/02 07:54:12;;;;;;;12.70;4.22;;;;;;;;;;5006199;28;20048;-83
2023/07/02 07:56:37;;;;;;;12.00;4.05;;;;;;;;;;5026344;28;20041;-82
2023/07/02 07:59:02;;;;;;;11.18;4.15;;;;;;;;;;5023508;28;20040;-80
2023/07/02 08:01:28;;;;;;;12.15;4.60;;;;;;;;;;5008760;28;20033;-84
2023/07/02 08:03:53;;;;;;;11.60;3.92;;;;;;;;;;5008887;28;20069;-84
2023/07/02 08:06:19;;;;;;;9.30;3.35;;;;;;;;;;5027661;28;20076;-82
2023/07/02 08:08:44;;;;;;;15.60;4.40;;;;;;;;;;5009294;28;20112;-81
2023/07/02 08:11:09;;;;;;;10.00;3.80;;;;;;;;;;5011066;28;20466;-82
2023/07/02 08:13:35;;;;;;;11.13;4.10;;;;;;;;;;5025333;28;20484;-81
2023/07/02 08:16:00;;;;;;;7.38;4.10;;;;;;;;;;5023682;28;20025;-82
2023/07/02 08:18:26;;;;;;;8.70;3.55;;;;;;;;;;5006249;28;20432;-81
2023/07/02 08:20:51;;;;;;;9.68;3.53;;;;;;;;;;5022502;28;20026;-81
2023/07/02 08:23:16;;;;;;;10.40;3.45;;;;;;;;;;5021637;28;20477;-82
2023/07/02 08:25:42;;;;;;;9.43;3.58;;;;;;;;;;5026107;28;20022;-81
2023/07/02 08:28:07;;;;;;;8.45;3.72;;;;;;;;;;5013942;28;20025;-83
2023/07/02 08:30:32;;;;;;;7.80;3.42;;;;;;;;;;5007794;28;20085;-79
2023/07/02 08:32:58;;;;;;;12.65;3.88;;;;;;;;;;5020751;28;20029;-79
2023/07/02 08:35:23;;;;;;;10.68;3.65;;;;;;;;;;5024127;28;20036;-81
2023/07/02 08:37:49;;;;;;;13.38;3.45;;;;;;;;;;5025879;28;20057;-81
2023/07/02 08:40:20;;;;;;;10.80;4.20;;;;;;;;;;5029794;28;20108;-81
2023/07/02 08:42:49;;;;;;;9.95;3.92;;;;;;;;;;5022080;28;20385;-81
2023/07/02 08:45:18;;;;;;;8.75;3.50;;;;;;;;;;5026171;28;20013;-83
2023/07/02 08:47:45;;;;;;;9.88;3.35;;;;;;;;;;5002238;28;20033;-82
2023/07/02 08:50:14;;;;;;;9.27;3.90;;;;;;;;;;5016053;28;20036;-83
2023/07/02 08:52:40;;;;;;;9.20;3.75;;;;;;;;;;5029984;28;20059;-81
2023/07/02 08:55:06;;;;;;;7.78;3.40;;;;;;;;;;5016450;28;20424;-82
2023/07/02 08:57:31;;;;;;;8.77;3.55;;;;;;;;;;5024483;28;20478;-82
2023/07/02 08:59:57;;;;;;;8.35;3.80;;;;;;;;;;5023731;28;20033;-83
2023/07/02 09:02:33;;;;;;;9.68;3.53;;;;;;;;;;5009553;28;20033;-83
2023/07/02 09:04:59;;;;;;;10.70;3.50;;;;;;;;;;5029186;28;20095;-83
2023/07/02 09:07:25;;;;;;;7.47;3.35;;;;;;;;;;5030718;28;20021;-83
2023/07/02 09:09:50;;;;;;;11.07;3.70;;;;;;;;;;5010674;28;20474;-83
2023/07/02 09:12:26;;;;;;;9.15;3.72;;;;;;;;;;5031115;28;20017;-82
2023/07/02 09:15:06;;;;;;;10.65;3.67;;;;;;;;;;5012628;28;20029;-79
2023/07/02 09:17:38;;;;;;;9.00;3.63;;;;;;;;;;5025782;28;20028;-82
2023/07/02 09:20:07;;;;;;;9.98;3.83;;;;;;;;;;5020025;28;20091;-83
2023/07/02 09:22:33;;;;;;;7.63;3.60;;;;;;;;;;5028931;28;20034;-80
2023/07/02 09:25:00;;;;;;;10.40;3.72;;;;;;;;;;5016139;28;20046;-84
2023/07/02 09:27:41;;;;;;;10.77;3.47;;;;;;;;;;5013578;28;20489;-84
2023/07/02 09:30:17;;;;;;;9.85;3.22;;;;;;;;;;5014413;28;20025;-85
2023/07/02 09:32:44;;;;;;;9.57;3.40;;;;;;;;;;5007285;28;20061;-83
2023/07/02 09:35:09;;;;;;;6.93;2.72;;;;;;;;;;5023271;28;20018;-84
2023/07/02 09:37:36;;;;;;;7.15;3.40;;;;;;;;;;5022166;28;20056;-83
2023/07/02 09:40:05;;;;;;;6.97;3.22;;;;;;;;;;4993239;28;20140;-78
2023/07/02 09:42:31;;;;;;;8.57;3.10;;;;;;;;;;5026865;28;20405;-84
2023/07/02 09:44:58;;;;;;;8.90;3.53;;;;;;;;;;5028789;28;20558;-86
2023/07/02 09:47:25;;;;;;;8.63;3.30;;;;;;;;;;5025976;28;20109;-83
2023/07/02 09:50:02;;;;;;;10.45;3.40;;;;;;;;;;5029481;28;20048;-84
2023/07/02 09:52:27;;;;;;;8.73;3.83;;;;;;;;;;5010301;28;20029;-84
2023/07/02 09:54:53;;;;;;;7.85;3.20;;;;;;;;;;5015036;28;20038;-85
2023/07/02 09:57:19;;;;;;;6.68;3.47;;;;;;;;;;5031452;28;20083;-84
2023/07/02 09:59:44;;;;;;;7.90;3.20;;;;;;;;;;5028226;28;20030;-84
2023/07/02 10:02:10;;;;;;;7.82;3.75;;;;;;;;;;5011759;28;20551;-82
2023/07/02 10:04:44;;;;;;;9.95;3.78;;;;;;;;;;5027459;28;20037;-84
2023/07/02 10:07:10;;;;;;;10.00;3.90;;;;;;;;;;5009954;28;20025;-84
2023/07/02 10:09:42;;;;;;;8.98;3.35;;;;;;;;;;5026858;28;20501;-85
2023/07/02 10:12:27;;;;;;;7.22;3.40;;;;;;;;;;5012592;28;20030;-81
2023/07/02 10:14:54;;;;;;;10.23;3.60;;;;;;;;;;5009259;28;20026;-83
2023/07/02 10:17:33;;;;;;;7.82;3.10;;;;;;;;;;5030950;28;20032;-86
2023/07/02 10:20:13;;;;;;;8.15;3.10;;;;;;;;;;5010150;28;20476;-86
2023/07/02 10:22:53;;;;;;;7.57;3.50;;;;;;;;;;5011455;28;20436;-86
2023/07/02 10:25:30;;;;;;;8.75;3.60;;;;;;;;;;5014244;28;20500;-85
2023/07/02 10:27:56;;;;;;;8.55;3.03;;;;;;;;;;5026028;28;20031;-84
2023/07/02 10:30:37;;;;;;;6.88;2.80;;;;;;;;;;5031267;28;20021;-86
2023/07/02 10:33:13;;;;;;;7.03;3.58;;;;;;;;;;5028088;28;20104;-87
2023/07/02 10:35:41;;;;;;;8.05;3.22;;;;;;;;;;5031163;28;20501;-87
2023/07/02 10:38:07;;;;;;;8.50;3.50;;;;;;;;;;5009885;28;20121;-87
2023/07/02 10:40:33;;;;;;;7.47;3.35;;;;;;;;;;5016215;28;20449;-86
2023/07/02 10:42:59;;;;;;;11.15;3.55;;;;;;;;;;5012074;28;20072;-86
2023/07/02 10:45:32;;;;;;;7.28;3.35;;;;;;;;;;5011083;28;20053;-87
2023/07/02 10:47:58;;;;;;;7.93;3.05;;;;;;;;;;5007702;28;20055;-87
2023/07/02 10:50:23;;;;;;;8.48;3.05;;;;;;;;;;5028887;28;20021;-86
2023/07/02 10:52:52;;;;;;;7.00;3.03;;;;;;;;;;5030614;28;20079;-84
2023/07/02 10:55:28;;;;;;;7.88;3.28;;;;;;;;;;5028532;28;20064;-87
2023/07/02 10:58:05;;;;;;;7.53;3.30;;;;;;;;;;5025129;28;20494;-87
2023/07/02 11:00:30;;;;;;;9.05;2.80;;;;;;;;;;5022469;28;20076;-87
2023/07/02 11:02:56;;;;;;;10.35;3.00;;;;;;;;;;5012644;28;20030;-87
2023/07/02 11:05:21;;;;;;;6.55;2.53;;;;;;;;;;5027671;28;20523;-87
2023/07/02 11:07:47;;;;;;;14.00;2.78;;;;;;;;;;5010456;28;20037;-84
2023/07/02 11:10:19;;;;;;;7.35;2.78;;;;;;;;;;5008382;28;20029;-87
2023/07/02 11:12:45;;;;;;;6.00;2.30;;;;;;;;;;5009419;28;20029;-88
2023/07/02 11:15:12;;;;;;;6.72;3.15;;;;;;;;;;5027781;28;20055;-87
2023/07/02 11:17:40;;;;;;;7.00;2.83;;;;;;;;;;5009205;28;20529;-86
2023/07/02 11:20:08;;;;;;;7.70;2.85;;;;;;;;;;5027697;28;20036;-89
2023/07/02 11:22:34;;;;;;;7.75;2.78;;;;;;;;;;5030472;28;20108;-87
2023/07/02 11:25:14;;;;;;;5.57;2.72;;;;;;;;;;5015479;28;20060;-89
2023/07/02 11:27:40;;;;;;;8.13;2.72;;;;;;;;;;5020031;28;20079;-90
2023/07/02 11:30:06;;;;;;;5.45;2.10;;;;;;;;;;5024476;28;20040;-89
2023/07/02 11:32:46;;;;;;;6.55;2.70;;;;;;;;;;5032627;28;20029;-87
2023/07/02 11:35:11;;;;;;;5.25;2.55;;;;;;;;;;5026111;28;20025;-89
2023/07/02 11:37:37;;;;;;;6.07;2.70;;;;;;;;;;5027248;28;20029;-89
2023/07/02 11:40:02;;;;;;;5.40;2.35;;;;;;;;;;5020620;28;20029;-89
2023/07/02 11:42:30;;;;;;;6.10;2.70;;;;;;;;;;5034989;28;20029;-88
2023/07/02 11:44:55;;;;;;;8.65;2.95;;;;;;;;;;5029956;28;20447;-87
2023/07/02 11:47:20;;;;;;;5.57;2.47;;;;;;;;;;5021275;28;20101;-88
2023/07/02 11:49:46;;;;;;;8.25;2.50;;;;;;;;;;5025738;28;20101;-89
2023/07/02 11:52:12;;;;;;;8.73;2.50;;;;;;;;;;5027425;28;20048;-85
2023/07/02 11:54:38;;;;;;;6.78;2.58;;;;;;;;;;5013151;28;20542;-86
2023/07/02 11:57:04;;;;;;;8.63;2.67;;;;;;;;;;5009769;28;20017;-85
2023/07/02 11:59:29;;;;;;;6.63;2.50;;;;;;;;;;5031926;28;20029;-90
2023/07/02 12:01:55;;;;;;;5.18;2.20;;;;;;;;;;5029809;28;20086;-87
2023/07/02 12:04:20;;;;;;;5.20;2.15;;;;;;;;;;5030337;28;20033;-86
2023/07/02 12:06:45;;;;;;;6.32;2.58;;;;;;;;;;5026218;28;20466;-90
2023/07/02 12:09:11;;;;;;;7.43;2.70;;;;;;;;;;5023728;28;20681;-88
2023/07/02 12:11:36;;;;;;;7.70;2.38;;;;;;;;;;5023866;28;20048;-86
2023/07/02 12:14:03;;;;;;;8.35;2.60;;;;;;;;;;5035020;28;20025;-86
2023/07/02 12:16:28;;;;;;;5.50;2.38;;;;;;;;;;5028335;28;20029;-89
2023/07/02 12:18:53;;;;;;;6.53;2.60;;;;;;;;;;5017773;28;20140;-89
2023/07/02 12:21:19;;;;;;;7.35;2.20;;;;;;;;;;5022205;28;20037;-89
2023/07/02 12:23:45;;;;;;;5.90;2.17;;;;;;;;;;5022304;28;20524;-88
2023/07/02 12:26:10;;;;;;;5.90;2.58;;;;;;;;;;5033476;28;20068;-82
2023/07/02 12:28:36;;;;;;;4.60;2.00;;;;;;;;;;5029002;28;20030;-87
2023/07/02 12:31:02;;;;;;;5.82;2.15;;;;;;;;;;5023490;28;20091;-90
2023/07/02 12:33:28;;;;;;;6.50;2.35;;;;;;;;;;5018069;28;20088;-89
2023/07/02 12:35:53;;;;;;;5.38;2.28;;;;;;;;;;5023591;28;20068;-89
2023/07/02 12:38:18;;;;;;;5.35;2.17;;;;;;;;;;5016596;28;20040;-81
2023/07/02 12:40:44;;;;;;;6.30;2.03;;;;;;;;;;5041482;28;20047;-86
2023/07/02 12:43:09;;;;;;;5.45;2.33;;;;;;;;;;5034492;28;20080;-80
2023/07/02 12:45:34;;;;;;;5.53;2.50;;;;;;;;;;5018634;28;20020;-87
2023/07/02 12:48:00;;;;;;;6.13;2.03;;;;;;;;;;5006796;28;20089;-87
2023/07/02 12:50:25;;;;;;;6.43;2.50;;;;;;;;;;5033803;28;20432;-89
2023/07/02 12:52:51;;;;;;;6.18;2.30;;;;;;;;;;5020386;28;20060;-89
2023/07/02 12:55:16;;;;;;;5.45;2.22;;;;;;;;;;5017438;28;20033;-89
2023/07/02 12:57:41;;;;;;;6.00;2.20;;;;;;;;;;5024571;28;20083;-84
2023/07/02 13:00:08;;;;;;;5.90;2.22;;;;;;;;;;5035794;28;20129;-89
2023/07/02 13:02:34;;;;;;;5.93;2.42;;;;;;;;;;5027285;28;20059;-88
2023/07/02 13:04:59;;;;;;;7.15;2.40;;;;;;;;;;5038136;28;20389;-89
2023/07/02 13:07:25;;;;;;;7.10;3.03;;;;;;;;;;5034901;28;20078;-89
2023/07/02 13:09:51;;;;;;;7.10;2.30;;;;;;;;;;5022049;28;20167;-84
2023/07/02 13:12:17;;;;;;;5.90;2.40;;;;;;;;;;5014792;28;20447;-87
2023/07/02 13:14:43;;;;;;;5.63;2.45;;;;;;;;;;5019658;28;20120;-89
2023/07/02 13:17:08;;;;;;;6.47;2.38;;;;;;;;;;5031967;28;20075;-90
2023/07/02 13:19:35;;;;;;;7.45;2.60;;;;;;;;;;5040176;28;20021;-83
2023/07/02 13:22:00;;;;;;;6.78;2.90;;;;;;;;;;5027872;28;20393;-86
2023/07/02 13:24:28;;;;;;;6.60;2.70;;;;;;;;;;5014403;28;20041;-76
2023/07/02 13:26:53;;;;;;;7.60;2.95;;;;;;;;;;5023128;28;20031;-74
2023/07/02 13:29:19;;;;;;;7.75;3.08;;;;;;;;;;5007325;28;20033;-74
2023/07/02 13:31:44;;;;;;;6.20;2.30;;;;;;;;;;5005895;28;21002;-74
2023/07/02 13:34:09;;;;;;;5.40;2.60;;;;;;;;;;4980664;28;20033;-75
2023/07/02 13:36:35;;;;;;;7.90;2.20;;;;;;;;;;5026999;28;20025;-75
2023/07/02 13:39:00;;;;;;;6.25;2.50;;;;;;;;;;5026104;28;20031;-74
2023/07/02 13:41:26;;;;;;;6.15;2.58;;;;;;;;;;5015172;28;20036;-74
2023/07/02 13:43:51;;;;;;;6.43;2.65;;;;;;;;;;5007157;28;20115;-74
2023/07/02 13:46:17;;;;;;;8.07;2.85;;;;;;;;;;5016140;28;20112;-75
2023/07/02 13:48:42;;;;;;;6.18;2.47;;;;;;;;;;5003577;28;20044;-74
2023/07/02 13:51:08;;;;;;;6.63;2.72;;;;;;;;;;5025040;28;20021;-77
2023/07/02 13:53:34;;;;;;;6.25;2.40;;;;;;;;;;5009843;28;20037;-74
2023/07/02 13:55:59;;;;;;;5.88;2.53;;;;;;;;;;5023748;28;20116;-78
2023/07/02 13:58:24;;;;;;;7.90;2.63;;;;;;;;;;5013499;28;20137;-76
2023/07/02 14:00:50;;;;;;;5.15;2.67;;;;;;;;;;5010995;28;20175;-74
2023/07/02 14:03:15;;;;;;;7.25;2.60;;;;;;;;;;5012388;28;20488;-74
2023/07/02 14:05:41;;;;;;;7.65;2.45;;;;;;;;;;5011405;28;20017;-74
2023/07/02 14:08:06;;;;;;;8.90;3.08;;;;;;;;;;5026992;28;20034;-74
2023/07/02 14:10:32;;;;;;;9.35;2.85;;;;;;;;;;5010086;28;20500;-76
2023/07/02 14:12:57;;;;;;;6.57;2.42;;;;;;;;;;5025499;28;20055;-74
2023/07/02 14:15:24;;;;;;;7.25;2.55;;;;;;;;;;5011161;28;20029;-74
2023/07/02 14:17:50;;;;;;;8.18;2.53;;;;;;;;;;5005667;28;20036;-74
2023/07/02 14:20:15;;;;;;;6.63;2.65;;;;;;;;;;5025407;28;20025;-74
2023/07/02 14:22:41;;;;;;;7.05;2.70;;;;;;;;;;5022573;28;20031;-74
2023/07/02 14:25:06;;;;;;;6.57;2.35;;;;;;;;;;5020379;28;20108;-75
2023/07/02 14:27:32;;;;;;;7.13;2.40;;;;;;;;;;5009786;28;20017;-74
2023/07/02 14:29:57;;;;;;;7.70;2.40;;;;;;;;;;5012908;28;20079;-75
2023/07/02 14:32:23;;;;;;;7.28;2.72;;;;;;;;;;5008120;28;20044;-75